createdAt,value
2022-10-29T00:00:51.047Z,79.05
2022-10-29T00:03:17.778Z,78.78
2022-10-29T00:05:44.184Z,79.08
2022-10-29T00:08:10.548Z,78.82
2022-10-29T00:10:36.960Z,78.92
2022-10-29T00:13:04.137Z,78.78
2022-10-29T00:15:30.483Z,79.30
2022-10-29T00:17:57.076Z,78.87
2022-10-29T00:20:23.919Z,79.43
2022-10-29T00:22:53.376Z,78.71
2022-10-29T00:25:19.982Z,78.50
2022-10-29T00:27:46.339Z,77.95
2022-10-29T00:30:13.105Z,77.52
2022-10-29T00:32:39.470Z,77.40
2022-10-29T00:35:06.012Z,78.14
2022-10-29T00:37:32.384Z,77.18
2022-10-29T00:39:58.704Z,77.04
2022-10-29T00:42:25.100Z,77.78
2022-10-29T00:44:51.781Z,77.52
2022-10-29T00:47:25.975Z,77.80
2022-10-29T00:50:04.680Z,78.60
2022-10-29T00:52:33.425Z,77.51
2022-10-29T00:55:06.793Z,76.89
2022-10-29T00:57:40.113Z,77.18
2022-10-29T01:00:07.257Z,77.31
2022-10-29T01:02:35.968Z,76.91
2022-10-29T01:05:05.199Z,77.78
2022-10-29T01:07:32.033Z,77.32
2022-10-29T01:09:58.792Z,77.16
2022-10-29T01:12:32.311Z,77.14
2022-10-29T01:15:10.676Z,78.14
2022-10-29T01:18:14.520Z,78.44
2022-10-29T01:20:59.256Z,78.51
2022-10-29T01:23:50.718Z,78.32
2022-10-29T01:26:54.716Z,78.64
2022-10-29T01:29:48.852Z,79.08
2022-10-29T01:32:57.330Z,79.64
2022-10-29T01:35:34.340Z,79.67
2022-10-29T01:38:07.905Z,79.92
2022-10-29T01:40:48.457Z,80.32
2022-10-29T01:43:30.979Z,80.79
2022-10-29T01:46:09.930Z,81.21
2022-10-29T01:48:40.880Z,81.29
2022-10-29T01:51:13.985Z,81.58
2022-10-29T01:53:40.372Z,82.19
2022-10-29T01:56:07.135Z,82.03
2022-10-29T01:58:36.875Z,81.97
2022-10-29T02:01:08.223Z,81.95
2022-10-29T02:04:01.414Z,82.32
2022-10-29T02:06:33.880Z,83.03
2022-10-29T02:09:28.648Z,82.86
2022-10-29T02:12:27.820Z,82.70
2022-10-29T02:15:02.533Z,82.86
2022-10-29T02:17:31.772Z,82.32
2022-10-29T02:19:58.078Z,82.70
2022-10-29T02:22:24.906Z,82.32
2022-10-29T02:24:51.260Z,82.15
2022-10-29T02:27:17.621Z,82.70
2022-10-29T02:29:43.944Z,82.38
2022-10-29T02:32:10.263Z,82.02
2022-10-29T02:34:36.603Z,82.56
2022-10-29T02:37:02.969Z,82.75
2022-10-29T02:39:30.736Z,82.38
2022-10-29T02:41:57.118Z,82.32
2022-10-29T02:44:23.491Z,82.66
2022-10-29T02:46:49.832Z,82.63
2022-10-29T02:49:16.314Z,82.89
2022-10-29T02:51:42.749Z,82.70
2022-10-29T02:54:09.189Z,83.00
2022-10-29T02:56:35.509Z,82.92
2022-10-29T02:59:04.244Z,83.32
2022-10-29T03:01:33.034Z,82.79
2022-10-29T03:03:59.502Z,83.14
2022-10-29T03:06:26.017Z,82.95
2022-10-29T03:08:52.387Z,83.30
2022-10-29T03:11:18.778Z,83.48
2022-10-29T03:13:45.182Z,83.00
2022-10-29T03:16:11.588Z,83.21
2022-10-29T03:18:38.202Z,83.32
2022-10-29T03:21:04.673Z,83.39
2022-10-29T03:23:31.015Z,83.27
2022-10-29T03:25:57.420Z,83.52
2022-10-29T03:28:27.641Z,83.62
2022-10-29T03:30:54.097Z,83.77
2022-10-29T03:33:20.607Z,84.09
2022-10-29T03:35:47.005Z,83.79
2022-10-29T03:38:13.365Z,83.58
2022-10-29T03:40:39.758Z,83.39
2022-10-29T03:43:06.088Z,83.96
2022-10-29T03:45:32.426Z,83.91
2022-10-29T03:47:58.986Z,83.64
2022-10-29T03:50:25.580Z,83.82
2022-10-29T03:52:51.917Z,84.14
2022-10-29T03:55:18.287Z,84.10
2022-10-29T03:57:44.615Z,84.37
2022-10-29T04:00:11.409Z,84.59
2022-10-29T04:02:37.846Z,84.51
2022-10-29T04:05:04.562Z,84.54
2022-10-29T04:07:30.911Z,84.64
2022-10-29T04:09:57.247Z,84.52
2022-10-29T04:12:23.640Z,84.59
2022-10-29T04:17:21.223Z,84.58
2022-10-29T04:19:47.609Z,84.60
2022-10-29T04:28:41.790Z,84.25
2022-10-29T04:30:32.862Z,84.49
2022-10-29T04:33:00.489Z,84.60
2022-10-29T04:35:28.487Z,84.64
2022-10-29T04:37:55.446Z,85.00
2022-10-29T04:40:24.327Z,84.71
2022-10-29T04:42:50.952Z,84.75
2022-10-29T04:45:18.028Z,84.46
2022-10-29T04:47:44.444Z,84.38
2022-10-29T04:50:10.826Z,83.67
2022-10-29T04:52:37.176Z,83.15
2022-10-29T04:55:03.753Z,82.72
2022-10-29T04:57:30.111Z,82.32
2022-10-29T04:59:56.433Z,82.67
2022-10-29T05:02:22.857Z,83.19
2022-10-29T05:04:49.190Z,83.71
2022-10-29T05:07:15.573Z,83.96
2022-10-29T05:09:41.889Z,84.12
2022-10-29T05:12:08.446Z,84.00
2022-10-29T05:14:34.788Z,83.92
2022-10-29T05:17:01.180Z,84.24
2022-10-29T05:19:27.515Z,84.16
2022-10-29T05:21:53.868Z,84.03
2022-10-29T05:24:20.205Z,83.93
2022-10-29T05:26:46.543Z,84.22
2022-10-29T05:29:12.864Z,83.95
2022-10-29T05:31:39.189Z,84.20
2022-10-29T05:34:05.564Z,84.46
2022-10-29T05:36:31.899Z,84.48
2022-10-29T05:38:58.392Z,84.68
2022-10-29T05:41:24.725Z,84.75
2022-10-29T05:43:51.092Z,84.82
2022-10-29T05:46:17.495Z,84.77
2022-10-29T05:48:43.812Z,84.16
2022-10-29T05:51:10.317Z,83.97
2022-10-29T05:53:36.824Z,83.83
2022-10-29T05:56:03.289Z,83.65
2022-10-29T05:58:29.593Z,83.77
2022-10-29T06:00:55.926Z,84.02
2022-10-29T06:03:22.833Z,84.18
2022-10-29T06:05:50.839Z,84.32
2022-10-29T06:08:18.024Z,84.69
2022-10-29T06:10:44.972Z,84.59
2022-10-29T06:13:17.809Z,84.84
2022-10-29T06:15:44.869Z,84.60
2022-10-29T06:18:11.728Z,84.87
2022-10-29T06:20:39.137Z,85.05
2022-10-29T06:23:05.930Z,85.03
2022-10-29T06:25:32.584Z,85.13
2022-10-29T06:28:03.166Z,84.84
2022-10-29T06:30:30.856Z,84.95
2022-10-29T06:32:58.026Z,84.76
2022-10-29T06:35:25.019Z,84.71
2022-10-29T06:37:51.577Z,84.16
2022-10-29T06:40:18.448Z,84.52
2022-10-29T06:42:44.956Z,84.54
2022-10-29T06:45:12.289Z,84.32
2022-10-29T06:47:40.509Z,84.16
2022-10-29T06:50:08.080Z,83.75
2022-10-29T06:52:35.332Z,83.39
2022-10-29T06:55:04.928Z,83.66
2022-10-29T06:57:32.123Z,83.40
2022-10-29T07:00:02.175Z,83.39
2022-10-29T07:02:31.702Z,83.11
2022-10-29T07:04:58.028Z,83.25
2022-10-29T07:09:55.708Z,83.48
2022-10-29T07:12:22.048Z,83.49
2022-10-29T07:14:48.379Z,83.56
2022-10-29T07:17:14.707Z,83.54
2022-10-29T07:19:41.031Z,83.79
2022-10-29T07:22:07.361Z,83.67
2022-10-29T07:24:33.717Z,83.79
2022-10-29T07:27:01.801Z,83.57
2022-10-29T07:29:28.217Z,84.00
2022-10-29T07:31:54.549Z,83.69
2022-10-29T07:34:20.871Z,83.86
2022-10-29T07:36:47.208Z,83.94
2022-10-29T07:39:13.541Z,84.21
2022-10-29T07:41:39.912Z,83.75
2022-10-29T07:44:06.293Z,83.55
2022-10-29T07:46:32.639Z,83.41
2022-10-29T07:48:59.879Z,83.37
2022-10-29T07:51:26.249Z,83.17
2022-10-29T07:53:52.571Z,82.70
2022-10-29T07:56:18.923Z,82.13
2022-10-29T07:58:45.256Z,82.73
2022-10-29T08:01:11.652Z,81.61
2022-10-29T08:03:38.103Z,81.98
2022-10-29T08:06:04.811Z,81.25
2022-10-29T08:08:31.265Z,81.26
2022-10-29T08:11:04.849Z,81.08
2022-10-29T08:13:31.368Z,81.08
2022-10-29T08:15:57.732Z,80.20
2022-10-29T08:18:24.047Z,79.46
2022-10-29T08:20:50.872Z,79.34
2022-10-29T08:23:17.447Z,79.99
2022-10-29T08:25:44.510Z,79.99
2022-10-29T08:28:13.398Z,79.94
2022-10-29T08:30:40.949Z,79.88
2022-10-29T08:33:07.843Z,79.08
2022-10-29T08:35:34.454Z,78.73
2022-10-29T08:38:00.827Z,78.16
2022-10-29T08:40:35.764Z,78.56
2022-10-29T08:43:47.735Z,78.28
2022-10-29T08:46:28.637Z,77.22
2022-10-29T08:49:02.628Z,77.33
2022-10-29T08:51:30.975Z,77.54
2022-10-29T08:54:29.935Z,76.56
2022-10-29T08:56:52.946Z,76.61
2022-10-29T08:59:29.480Z,76.70
2022-10-29T09:01:56.473Z,75.93
2022-10-29T09:04:35.005Z,75.50
2022-10-29T09:07:19.920Z,74.77
2022-10-29T09:09:59.709Z,73.71
2022-10-29T09:12:47.668Z,72.75
2022-10-29T09:15:56.352Z,73.28
2022-10-29T09:18:59.540Z,73.23
2022-10-29T09:21:28.856Z,73.69
2022-10-29T09:24:17.687Z,74.60
2022-10-29T09:26:56.957Z,74.14
2022-10-29T09:29:46.384Z,73.27
2022-10-29T09:32:43.889Z,75.83
2022-10-29T09:35:18.396Z,73.05
2022-10-29T09:37:49.183Z,74.97
2022-10-29T09:40:35.848Z,70.46
2022-10-29T09:43:14.628Z,67.17
2022-10-29T09:46:35.087Z,68.37
2022-10-29T09:49:24.469Z,66.56
2022-10-29T09:52:00.087Z,66.51
2022-10-29T09:54:29.476Z,66.36
2022-10-29T09:56:57.258Z,66.78
2022-10-29T09:59:37.193Z,64.21
2022-10-29T10:02:18.675Z,64.86
2022-10-29T10:04:49.104Z,65.40
2022-10-29T10:07:21.644Z,64.96
2022-10-29T10:09:57.188Z,64.44
2022-10-29T10:12:27.179Z,64.34
2022-10-29T10:15:14.568Z,64.58
2022-10-29T10:17:56.259Z,66.26
2022-10-29T10:20:39.407Z,64.75
2022-10-29T10:23:41.415Z,64.50
2022-10-29T10:26:32.769Z,63.76
2022-10-29T10:29:06.356Z,63.51
2022-10-29T10:31:32.687Z,62.19
2022-10-29T10:33:59.037Z,63.06
2022-10-29T10:36:28.806Z,65.40
2022-10-29T10:38:57.812Z,66.85
2022-10-29T10:41:28.480Z,66.15
2022-10-29T10:44:00.353Z,65.15
2022-10-29T10:46:29.038Z,64.38
2022-10-29T10:49:38.779Z,67.09
2022-10-29T10:52:27.949Z,68.78
2022-10-29T10:54:59.485Z,67.72
2022-10-29T10:57:30.503Z,67.24
2022-10-29T11:00:06.364Z,67.72
2022-10-29T11:02:47.684Z,66.89
2022-10-29T11:05:23.162Z,67.25
2022-10-29T11:07:59.800Z,65.29
2022-10-29T11:10:34.645Z,66.43
2022-10-29T11:13:06.447Z,66.27
2022-10-29T11:15:45.581Z,66.84
2022-10-29T11:18:34.944Z,66.31
2022-10-29T11:21:23.061Z,67.49
2022-10-29T11:24:01.327Z,67.88
2022-10-29T11:26:48.930Z,67.75
2022-10-29T11:29:33.548Z,66.67
2022-10-29T11:32:07.130Z,66.13
2022-10-29T11:34:42.308Z,64.81
2022-10-29T11:37:46.236Z,63.65
2022-10-29T11:40:24.078Z,66.22
2022-10-29T11:42:50.554Z,64.90
2022-10-29T11:46:01.708Z,65.06
2022-10-29T11:48:46.445Z,65.33
2022-10-29T11:51:40.778Z,64.46
2022-10-29T11:54:43.158Z,64.85
2022-10-29T11:57:32.630Z,63.25
2022-10-29T12:00:12.883Z,64.11
2022-10-29T12:02:45.318Z,63.63
2022-10-29T12:05:45.682Z,63.21
2022-10-29T12:08:49.570Z,59.49
2022-10-29T12:11:45.469Z,61.93
2022-10-29T12:14:36.299Z,62.73
2022-10-29T12:17:13.563Z,64.02
2022-10-29T12:20:09.174Z,61.86
2022-10-29T12:23:02.612Z,59.61
2022-10-29T12:26:13.263Z,58.84
2022-10-29T12:28:58.662Z,58.16
2022-10-29T12:31:47.926Z,59.00
2022-10-29T12:34:23.048Z,58.90
2022-10-29T12:37:23.370Z,54.50
2022-10-29T12:40:01.661Z,55.95
2022-10-29T12:42:31.898Z,55.38
2022-10-29T12:45:26.095Z,55.45
2022-10-29T12:48:15.817Z,54.52
2022-10-29T12:50:57.097Z,55.88
2022-10-29T12:53:35.532Z,54.49
2022-10-29T12:56:03.775Z,56.19
2022-10-29T12:58:56.972Z,54.09
2022-10-29T13:01:38.430Z,55.16
2022-10-29T13:04:33.948Z,54.06
2022-10-29T13:07:23.296Z,55.01
2022-10-29T13:10:22.381Z,54.51
2022-10-29T13:12:54.948Z,54.76
2022-10-29T13:15:34.075Z,53.77
2022-10-29T13:18:08.681Z,55.46
2022-10-29T13:20:38.892Z,56.08
2022-10-29T13:23:23.723Z,56.04
2022-10-29T13:25:52.227Z,56.66
2022-10-29T13:28:18.559Z,56.62
2022-10-29T13:30:50.092Z,57.67
2022-10-29T13:33:28.395Z,57.37
2022-10-29T13:36:02.275Z,58.16
2022-10-29T13:38:52.388Z,58.67
2022-10-29T13:41:42.902Z,59.46
2022-10-29T13:44:09.636Z,58.96
2022-10-29T13:47:00.919Z,59.89
2022-10-29T13:49:33.977Z,60.05
2022-10-29T13:52:14.862Z,59.84
2022-10-29T13:54:47.340Z,60.19
2022-10-29T13:57:25.271Z,61.52
2022-10-29T14:00:10.352Z,61.98
2022-10-29T14:02:37.112Z,61.78
2022-10-29T14:05:06.606Z,61.35
2022-10-29T14:08:06.072Z,61.14
2022-10-29T14:10:45.244Z,61.15
2022-10-29T14:13:14.355Z,60.92
2022-10-29T14:16:05.478Z,60.60
2022-10-29T14:18:58.833Z,61.02
2022-10-29T14:21:29.398Z,61.35
2022-10-29T14:23:58.477Z,62.30
2022-10-29T14:26:25.801Z,62.44
2022-10-29T14:28:53.054Z,62.35
2022-10-29T14:31:24.511Z,63.04
2022-10-29T14:33:58.836Z,61.72
2022-10-29T14:36:25.115Z,62.13
2022-10-29T14:39:00.021Z,61.72
2022-10-29T14:41:29.444Z,62.03
2022-10-29T14:44:18.926Z,61.64
2022-10-29T14:46:58.352Z,61.86
2022-10-29T14:49:25.738Z,62.25
2022-10-29T14:51:56.290Z,62.81
2022-10-29T14:54:27.175Z,62.58
2022-10-29T14:57:06.487Z,62.30
2022-10-29T14:59:35.395Z,61.60
2022-10-29T15:02:32.580Z,63.49
2022-10-29T15:05:04.413Z,63.02
2022-10-29T15:07:35.479Z,62.24
2022-10-29T15:10:17.329Z,63.49
2022-10-29T15:12:45.546Z,63.53
2022-10-29T15:15:17.978Z,63.19
2022-10-29T15:17:50.134Z,63.46
2022-10-29T15:20:23.417Z,63.56
2022-10-29T15:22:55.643Z,63.67
2022-10-29T15:25:38.590Z,64.41
2022-10-29T15:28:10.890Z,63.96
2022-10-29T15:30:38.645Z,64.21
2022-10-29T15:33:10.278Z,65.06
2022-10-29T15:35:44.370Z,64.50
2022-10-29T15:38:30.648Z,64.60
2022-10-29T15:41:19.945Z,65.04
2022-10-29T15:43:49.322Z,64.99
2022-10-29T15:46:51.052Z,65.41
2022-10-29T15:49:17.377Z,65.90
2022-10-29T15:51:43.790Z,65.81
2022-10-29T15:54:16.287Z,66.32
2022-10-29T15:56:42.630Z,65.82
2022-10-29T15:59:12.318Z,66.31
2022-10-29T16:01:38.792Z,65.83
2022-10-29T16:04:05.404Z,66.15
2022-10-29T16:06:32.180Z,66.38
2022-10-29T16:09:00.055Z,66.33
2022-10-29T16:11:27.550Z,66.61
2022-10-29T16:13:55.242Z,66.80
2022-10-29T16:16:23.997Z,66.63
2022-10-29T16:18:51.355Z,67.21
2022-10-29T16:21:22.884Z,67.34
2022-10-29T16:23:50.523Z,67.15
2022-10-29T16:26:20.437Z,67.27
2022-10-29T16:28:46.865Z,66.75
2022-10-29T16:31:20.332Z,67.03
2022-10-29T16:33:52.051Z,67.25
2022-10-29T16:36:18.847Z,66.93
2022-10-29T16:38:45.481Z,66.75
2022-10-29T16:41:13.706Z,67.41
2022-10-29T16:43:40.623Z,66.84
2022-10-29T16:46:07.076Z,66.92
2022-10-29T16:48:33.733Z,67.11
2022-10-29T16:51:00.469Z,67.32
2022-10-29T16:53:27.039Z,67.15
2022-10-29T16:55:53.401Z,66.96
2022-10-29T16:58:20.104Z,67.32
2022-10-29T17:00:46.953Z,66.91
2022-10-29T17:03:15.418Z,67.41
2022-10-29T17:05:44.058Z,67.05
2022-10-29T17:08:10.929Z,67.10
2022-10-29T17:10:37.434Z,67.13
2022-10-29T17:13:04.277Z,66.92
2022-10-29T17:15:30.608Z,67.56
2022-10-29T17:17:57.441Z,67.47
2022-10-29T17:20:24.070Z,67.03
2022-10-29T17:22:52.916Z,66.90
2022-10-29T17:25:19.393Z,67.35
2022-10-29T17:27:45.807Z,67.66
2022-10-29T17:30:12.305Z,67.55
2022-10-29T17:32:38.949Z,67.31
2022-10-29T17:35:05.764Z,68.13
2022-10-29T17:37:32.367Z,68.40
2022-10-29T17:40:03.058Z,67.63
2022-10-29T17:42:34.420Z,67.23
2022-10-29T17:45:00.765Z,67.42
2022-10-29T17:47:27.208Z,67.09
2022-10-29T17:49:53.670Z,67.34
2022-10-29T17:52:20.185Z,67.45
2022-10-29T17:54:46.570Z,67.21
2022-10-29T17:57:12.900Z,66.56
2022-10-29T17:59:39.290Z,67.17
2022-10-29T18:02:05.792Z,66.55
2022-10-29T18:04:32.227Z,66.23
2022-10-29T18:06:58.591Z,67.35
2022-10-29T18:09:24.993Z,66.95
2022-10-29T18:11:51.316Z,67.17
2022-10-29T18:14:17.903Z,66.93
2022-10-29T18:16:45.708Z,67.19
2022-10-29T18:19:12.121Z,65.94
2022-10-29T18:21:38.456Z,66.33
2022-10-29T18:24:05.180Z,66.45
2022-10-29T18:26:34.495Z,66.10
2022-10-29T18:29:09.449Z,67.02
2022-10-29T18:31:37.462Z,67.03
2022-10-29T18:34:06.164Z,66.68
2022-10-29T18:36:35.454Z,66.35
2022-10-29T18:39:02.290Z,66.43
2022-10-29T18:41:28.708Z,65.46
2022-10-29T18:43:55.413Z,65.17
2022-10-29T18:46:22.256Z,64.91
2022-10-29T18:48:49.174Z,67.01
2022-10-29T18:51:24.183Z,67.05
2022-10-29T18:53:51.747Z,66.15
2022-10-29T18:56:19.790Z,66.45
2022-10-29T18:58:46.972Z,65.71
2022-10-29T19:01:16.834Z,65.65
2022-10-29T19:03:44.046Z,66.45
2022-10-29T19:06:12.321Z,65.94
2022-10-29T19:08:40.670Z,66.43
2022-10-29T19:11:12.237Z,66.80
2022-10-29T19:13:38.590Z,66.57
2022-10-29T19:16:13.291Z,66.34
2022-10-29T19:18:41.036Z,66.69
2022-10-29T19:21:15.193Z,66.07
2022-10-29T19:23:42.069Z,66.10
2022-10-29T19:26:13.622Z,66.33
2022-10-29T19:28:41.005Z,66.11
2022-10-29T19:31:19.863Z,66.34
2022-10-29T19:33:50.947Z,66.68
2022-10-29T19:36:18.256Z,65.44
2022-10-29T19:38:44.877Z,66.24
2022-10-29T19:41:14.596Z,65.92
2022-10-29T19:43:41.518Z,66.12
2022-10-29T19:46:09.686Z,66.08
2022-10-29T19:48:36.336Z,65.87
2022-10-29T19:51:02.737Z,65.43
2022-10-29T19:53:29.254Z,65.25
2022-10-29T19:55:55.596Z,65.29
2022-10-29T19:58:25.004Z,65.58
2022-10-29T20:00:51.837Z,65.71
2022-10-29T20:03:18.932Z,66.03
2022-10-29T20:05:46.352Z,65.94
2022-10-29T20:08:15.856Z,65.87
2022-10-29T20:10:43.036Z,65.77
2022-10-29T20:13:09.418Z,66.13
2022-10-29T20:15:38.929Z,65.55
2022-10-29T20:18:05.631Z,65.45
2022-10-29T20:20:31.965Z,66.04
2022-10-29T20:22:59.975Z,65.37
2022-10-29T20:25:27.014Z,65.67
2022-10-29T20:27:53.352Z,64.86
2022-10-29T20:30:19.700Z,65.69
2022-10-29T20:32:46.021Z,66.05
2022-10-29T20:35:12.341Z,65.93
2022-10-29T20:37:38.750Z,65.48
2022-10-29T20:40:05.526Z,65.79
2022-10-29T20:42:31.896Z,66.06
2022-10-29T20:44:58.256Z,65.68
2022-10-29T20:47:24.760Z,66.03
2022-10-29T20:49:51.073Z,65.87
2022-10-29T20:52:17.480Z,65.78
2022-10-29T20:54:43.832Z,65.43
2022-10-29T20:57:10.143Z,64.89
2022-10-29T20:59:36.466Z,65.29
2022-10-29T21:02:02.941Z,65.46
2022-10-29T21:04:29.388Z,65.39
2022-10-29T21:06:55.775Z,65.53
2022-10-29T21:09:22.798Z,65.88
2022-10-29T21:11:49.149Z,65.96
2022-10-29T21:14:15.528Z,65.73
2022-10-29T21:16:41.874Z,65.76
2022-10-29T21:19:08.277Z,65.68
2022-10-29T21:21:34.619Z,65.29
2022-10-29T21:24:00.958Z,65.83
2022-10-29T21:26:28.607Z,65.30
2022-10-29T21:28:55.636Z,65.08
2022-10-29T21:31:22.931Z,65.82
2022-10-29T21:33:53.850Z,65.55
2022-10-29T21:36:20.585Z,66.08
2022-10-29T21:38:47.953Z,66.08
2022-10-29T21:41:14.632Z,66.31
2022-10-29T21:43:40.976Z,65.77
2022-10-29T21:46:07.586Z,65.02
2022-10-29T21:48:34.327Z,65.61
2022-10-29T21:51:08.165Z,65.27
2022-10-29T21:53:34.934Z,65.25
2022-10-29T21:56:03.921Z,64.61
2022-10-29T21:58:30.689Z,65.39
2022-10-29T22:01:03.478Z,65.90
2022-10-29T22:03:31.578Z,66.13
2022-10-29T22:06:05.987Z,66.41
2022-10-29T22:08:33.286Z,66.30
2022-10-29T22:11:00.125Z,65.83
2022-10-29T22:13:28.383Z,66.80
2022-10-29T22:15:54.788Z,66.08
2022-10-29T22:18:21.703Z,66.23
2022-10-29T22:20:48.081Z,67.05
2022-10-29T22:23:17.379Z,66.80
2022-10-29T22:25:49.627Z,66.20
2022-10-29T22:28:15.948Z,66.21
2022-10-29T22:30:42.285Z,67.00
2022-10-29T22:33:08.629Z,66.80
2022-10-29T22:35:34.967Z,66.61
2022-10-29T22:38:01.370Z,66.71
2022-10-29T22:40:27.696Z,67.40
2022-10-29T22:42:54.217Z,67.15
2022-10-29T22:45:20.660Z,66.42
2022-10-29T22:47:46.971Z,66.18
2022-10-29T22:50:13.363Z,66.52
2022-10-29T22:55:07.493Z,66.56
2022-10-29T22:57:33.805Z,67.06
2022-10-29T23:00:00.183Z,66.68
2022-10-29T23:02:26.593Z,66.38
2022-10-29T23:04:53.005Z,66.77
2022-10-29T23:07:19.393Z,66.51
2022-10-29T23:09:45.793Z,67.61
2022-10-29T23:12:12.118Z,67.66
2022-10-29T23:14:38.436Z,66.92
2022-10-29T23:17:04.769Z,66.94
2022-10-29T23:19:31.132Z,67.07
2022-10-29T23:21:57.468Z,66.84
2022-10-29T23:24:23.896Z,67.95
2022-10-29T23:26:50.236Z,67.35
2022-10-29T23:29:16.582Z,66.61
2022-10-29T23:31:42.900Z,66.12
2022-10-29T23:34:11.841Z,66.29
2022-10-29T23:36:38.226Z,66.40
2022-10-29T23:39:04.643Z,66.08
2022-10-29T23:41:31.489Z,65.77
2022-10-29T23:43:58.389Z,66.33
2022-10-29T23:46:24.928Z,66.57
2022-10-29T23:48:51.313Z,67.19
2022-10-29T23:51:18.057Z,66.97
2022-10-29T23:53:44.475Z,67.31
2022-10-29T23:56:10.820Z,67.47
2022-10-29T23:58:37.168Z,67.79
